createdAt,value
2018-07-12T00:00:39.799Z,19.62
2018-07-12T00:01:39.705Z,19.62
2018-07-12T00:02:39.712Z,19.62
2018-07-12T00:03:39.702Z,19.62
2018-07-12T00:04:39.734Z,19.62
2018-07-12T00:05:39.748Z,19.62
2018-07-12T00:06:39.721Z,19.62
2018-07-12T00:07:39.727Z,19.62
2018-07-12T00:08:39.695Z,19.56
2018-07-12T00:09:39.701Z,19.56
2018-07-12T00:10:39.736Z,19.56
2018-07-12T00:11:39.704Z,19.56
2018-07-12T00:12:39.731Z,19.62
2018-07-12T00:13:39.727Z,19.62
2018-07-12T00:14:39.762Z,19.62
2018-07-12T00:15:39.698Z,19.62
2018-07-12T00:16:39.713Z,19.69
2018-07-12T00:17:39.727Z,19.69
2018-07-12T00:18:39.723Z,19.69
2018-07-12T00:19:39.751Z,19.62
2018-07-12T00:20:39.741Z,19.69
2018-07-12T00:21:39.782Z,19.62
2018-07-12T00:22:39.744Z,19.69
2018-07-12T00:23:39.699Z,19.69
2018-07-12T00:24:39.737Z,19.69
2018-07-12T00:25:39.736Z,19.69
2018-07-12T00:26:39.782Z,19.62
2018-07-12T00:27:39.710Z,19.62
2018-07-12T00:28:39.787Z,19.69
2018-07-12T00:29:39.707Z,19.62
2018-07-12T00:30:39.845Z,19.62
2018-07-12T00:31:39.826Z,19.62
2018-07-12T00:32:39.828Z,19.62
2018-07-12T00:33:40.134Z,19.62
2018-07-12T00:34:39.744Z,19.62
2018-07-12T00:35:39.747Z,19.62
2018-07-12T00:36:39.696Z,19.62
2018-07-12T00:37:39.724Z,19.62
2018-07-12T00:38:39.766Z,19.62
2018-07-12T00:39:39.714Z,19.62
2018-07-12T00:40:39.704Z,19.62
2018-07-12T00:41:39.766Z,19.56
2018-07-12T00:42:39.837Z,19.56
2018-07-12T00:43:39.722Z,19.62
2018-07-12T00:44:39.739Z,19.62
2018-07-12T00:45:39.729Z,19.62
2018-07-12T00:46:39.736Z,19.56
2018-07-12T00:47:39.770Z,19.56
2018-07-12T00:48:39.781Z,19.62
2018-07-12T00:49:39.733Z,19.62
2018-07-12T00:50:39.813Z,19.62
2018-07-12T00:51:39.775Z,19.62
2018-07-12T00:52:39.916Z,19.62
2018-07-12T00:53:39.722Z,19.62
2018-07-12T00:54:39.716Z,19.62
2018-07-12T00:55:39.779Z,19.62
2018-07-12T00:56:39.767Z,19.62
2018-07-12T00:57:39.789Z,19.62
2018-07-12T00:58:39.786Z,19.62
2018-07-12T00:59:39.769Z,19.62
2018-07-12T01:00:39.824Z,19.62
2018-07-12T01:01:39.756Z,19.62
2018-07-12T01:02:39.766Z,19.62
2018-07-12T01:03:39.945Z,19.56
2018-07-12T01:04:39.764Z,19.56
2018-07-12T01:05:39.859Z,19.56
2018-07-12T01:06:39.820Z,19.56
2018-07-12T01:07:39.767Z,19.56
2018-07-12T01:08:39.825Z,19.56
2018-07-12T01:09:39.747Z,19.5
2018-07-12T01:10:39.748Z,19.5
2018-07-12T01:11:39.789Z,19.44
2018-07-12T01:12:39.782Z,19.5
2018-07-12T01:13:39.809Z,19.5
2018-07-12T01:14:39.951Z,19.5
2018-07-12T01:15:39.916Z,19.5
2018-07-12T01:16:40.069Z,19.5
2018-07-12T01:17:40.113Z,19.44
2018-07-12T01:18:39.824Z,19.5
2018-07-12T01:19:39.852Z,19.5
2018-07-12T01:20:39.958Z,19.5
2018-07-12T01:21:39.788Z,19.44
2018-07-12T01:22:39.942Z,19.44
2018-07-12T01:23:39.813Z,19.44
2018-07-12T01:24:39.927Z,19.37
2018-07-12T01:25:39.828Z,19.37
2018-07-12T01:26:39.803Z,19.37
2018-07-12T01:27:39.762Z,19.31
2018-07-12T01:28:39.800Z,19.37
2018-07-12T01:29:39.880Z,19.37
2018-07-12T01:30:39.896Z,19.37
2018-07-12T01:31:39.938Z,19.31
2018-07-12T01:32:39.945Z,19.37
2018-07-12T01:33:39.863Z,19.31
2018-07-12T01:34:39.924Z,19.31
2018-07-12T01:35:39.897Z,19.31
2018-07-12T01:36:39.823Z,19.31
2018-07-12T01:37:39.836Z,19.31
2018-07-12T01:38:39.762Z,19.25
2018-07-12T01:39:39.762Z,19.25
2018-07-12T01:40:39.806Z,19.25
2018-07-12T01:41:39.837Z,19.25
2018-07-12T01:42:39.749Z,19.25
2018-07-12T01:43:40.056Z,19.25
2018-07-12T01:44:39.821Z,19.31
2018-07-12T01:45:39.772Z,19.25
2018-07-12T01:46:39.876Z,19.25
2018-07-12T01:47:39.775Z,19.25
2018-07-12T01:48:39.821Z,19.25
2018-07-12T01:49:39.800Z,19.31
2018-07-12T01:50:39.793Z,19.31
2018-07-12T01:51:39.831Z,19.31
2018-07-12T01:52:39.847Z,19.37
2018-07-12T01:53:39.804Z,19.37
2018-07-12T01:54:39.799Z,19.37
2018-07-12T01:55:39.887Z,19.37
2018-07-12T01:56:39.804Z,19.31
2018-07-12T01:57:39.809Z,19.31
2018-07-12T01:58:40.057Z,19.31
2018-07-12T01:59:39.793Z,19.31
2018-07-12T02:00:40.888Z,19.31
2018-07-12T02:01:39.969Z,19.31
2018-07-12T02:02:39.801Z,19.31
2018-07-12T02:03:39.796Z,19.37
2018-07-12T02:04:39.846Z,19.31
2018-07-12T02:05:39.857Z,19.37
2018-07-12T02:06:39.789Z,19.31
2018-07-12T02:07:39.793Z,19.31
2018-07-12T02:08:39.811Z,19.37
2018-07-12T02:09:39.883Z,19.31
2018-07-12T02:10:39.846Z,19.31
2018-07-12T02:11:39.807Z,19.31
2018-07-12T02:12:39.815Z,19.31
2018-07-12T02:13:39.977Z,19.31
2018-07-12T02:14:39.813Z,19.31
2018-07-12T02:15:39.824Z,19.25
2018-07-12T02:16:39.811Z,19.31
2018-07-12T02:17:39.802Z,19.25
2018-07-12T02:18:39.849Z,19.31
2018-07-12T02:19:39.820Z,19.31
2018-07-12T02:20:39.782Z,19.31
2018-07-12T02:21:39.799Z,19.31
2018-07-12T02:22:39.834Z,19.25
2018-07-12T02:23:39.829Z,19.25
2018-07-12T02:24:39.806Z,19.25
2018-07-12T02:25:39.836Z,19.25
2018-07-12T02:26:39.821Z,19.25
2018-07-12T02:27:40.896Z,19.19
2018-07-12T02:28:39.863Z,19.19
2018-07-12T02:29:39.863Z,19.25
2018-07-12T02:30:39.888Z,19.19
2018-07-12T02:31:39.818Z,19.19
2018-07-12T02:32:39.844Z,19.19
2018-07-12T02:33:39.833Z,19.19
2018-07-12T02:34:39.847Z,19.19
2018-07-12T02:35:39.803Z,19.12
2018-07-12T02:36:39.874Z,19.19
2018-07-12T02:37:39.824Z,19.19
2018-07-12T02:38:39.813Z,19.19
2018-07-12T02:39:39.883Z,19.19
2018-07-12T02:40:39.890Z,19.19
2018-07-12T02:41:39.832Z,19.19
2018-07-12T02:42:39.828Z,19.19
2018-07-12T02:43:39.828Z,19.19
2018-07-12T02:44:39.885Z,19.19
2018-07-12T02:45:39.841Z,19.19
2018-07-12T02:46:39.855Z,19.19
2018-07-12T02:47:39.818Z,19.19
2018-07-12T02:48:39.811Z,19.12
2018-07-12T02:49:39.838Z,19.12
2018-07-12T02:50:39.869Z,19.19
2018-07-12T02:51:39.819Z,19.12
2018-07-12T02:52:39.826Z,19.12
2018-07-12T02:53:39.832Z,19.12
2018-07-12T02:54:39.811Z,19.12
2018-07-12T02:55:39.789Z,19.12
2018-07-12T02:56:39.865Z,19.06
2018-07-12T02:57:39.852Z,19.06
2018-07-12T02:58:39.833Z,19.06
2018-07-12T02:59:39.809Z,19
2018-07-12T03:00:39.824Z,19
2018-07-12T03:01:39.928Z,19
2018-07-12T03:02:39.903Z,19
2018-07-12T03:03:39.850Z,19
2018-07-12T03:04:40.033Z,18.94
2018-07-12T03:05:39.822Z,19
2018-07-12T03:06:39.965Z,19
2018-07-12T03:07:39.826Z,19
2018-07-12T03:08:40.022Z,19
2018-07-12T03:09:40.026Z,19
2018-07-12T03:10:39.923Z,18.94
2018-07-12T03:11:39.881Z,19
2018-07-12T03:12:39.972Z,19
2018-07-12T03:13:40.343Z,18.94
2018-07-12T03:14:40.295Z,18.94
2018-07-12T03:15:39.839Z,18.94
2018-07-12T03:16:40.141Z,19
2018-07-12T03:17:39.894Z,18.94
2018-07-12T03:18:39.903Z,18.87
2018-07-12T03:19:39.831Z,18.81
2018-07-12T03:20:39.854Z,18.81
2018-07-12T03:21:39.829Z,18.87
2018-07-12T03:22:40.159Z,18.81
2018-07-12T03:23:39.880Z,18.81
2018-07-12T03:24:39.912Z,18.81
2018-07-12T03:25:39.850Z,18.81
2018-07-12T03:26:40.126Z,18.81
2018-07-12T03:27:39.929Z,18.87
2018-07-12T03:28:39.935Z,18.87
2018-07-12T03:29:39.875Z,18.81
2018-07-12T03:30:39.862Z,18.75
2018-07-12T03:31:40.004Z,18.75
2018-07-12T03:32:39.898Z,18.81
2018-07-12T03:33:40.152Z,18.81
2018-07-12T03:34:39.819Z,18.81
2018-07-12T03:35:39.884Z,18.75
2018-07-12T03:36:39.918Z,18.75
2018-07-12T03:37:39.831Z,18.75
2018-07-12T03:38:39.881Z,18.69
2018-07-12T03:39:39.893Z,18.69
2018-07-12T03:40:40.079Z,18.69
2018-07-12T03:41:39.827Z,18.62
2018-07-12T03:42:39.878Z,18.69
2018-07-12T03:43:39.832Z,18.62
2018-07-12T03:44:39.884Z,18.62
2018-07-12T03:45:39.846Z,18.62
2018-07-12T03:46:39.852Z,18.69
2018-07-12T03:47:40.129Z,18.62
2018-07-12T03:48:40.437Z,18.69
2018-07-12T03:49:39.874Z,18.69
2018-07-12T03:50:39.882Z,18.62
2018-07-12T03:51:39.899Z,18.62
2018-07-12T03:52:39.879Z,18.62
2018-07-12T03:53:39.857Z,18.56
2018-07-12T03:54:39.820Z,18.56
2018-07-12T03:55:39.964Z,18.56
2018-07-12T03:56:39.946Z,18.56
2018-07-12T03:57:39.964Z,18.56
2018-07-12T03:58:39.862Z,18.56
2018-07-12T03:59:39.862Z,18.56
2018-07-12T04:00:39.872Z,18.56
2018-07-12T04:01:39.855Z,18.56
2018-07-12T04:02:39.907Z,18.5
2018-07-12T04:03:40.473Z,18.5
2018-07-12T04:04:41.107Z,18.5
2018-07-12T04:05:39.836Z,18.5
2018-07-12T04:06:39.851Z,18.5
2018-07-12T04:07:39.921Z,18.44
2018-07-12T04:08:39.848Z,18.44
2018-07-12T04:09:39.865Z,18.31
2018-07-12T04:10:39.876Z,18.31
2018-07-12T04:11:39.902Z,18.37
2018-07-12T04:12:39.855Z,18.31
2018-07-12T04:13:39.851Z,18.37
2018-07-12T04:14:40.009Z,18.31
2018-07-12T04:15:40.129Z,18.31
2018-07-12T04:16:39.860Z,18.37
2018-07-12T04:17:39.924Z,18.31
2018-07-12T04:18:40.147Z,18.31
2018-07-12T04:19:39.885Z,18.31
2018-07-12T04:20:39.984Z,18.31
2018-07-12T04:21:40.416Z,18.37
2018-07-12T04:22:39.881Z,18.37
2018-07-12T04:23:39.892Z,18.37
2018-07-12T04:24:39.940Z,18.37
2018-07-12T04:25:39.966Z,18.31
2018-07-12T04:26:39.872Z,18.31
2018-07-12T04:27:39.895Z,18.31
2018-07-12T04:28:40.026Z,18.37
2018-07-12T04:29:40.068Z,18.44
2018-07-12T04:30:41.303Z,18.44
2018-07-12T04:31:40.062Z,18.44
2018-07-12T04:32:40.177Z,18.44
2018-07-12T04:33:39.889Z,18.44
2018-07-12T04:34:40.634Z,18.5
2018-07-12T04:35:39.885Z,18.5
2018-07-12T04:36:40.478Z,18.5
2018-07-12T04:37:40.544Z,18.56
2018-07-12T04:38:40.261Z,18.56
2018-07-12T04:39:39.896Z,18.62
2018-07-12T04:40:39.995Z,18.56
2018-07-12T04:41:39.882Z,18.56
2018-07-12T04:42:39.878Z,18.5
2018-07-12T04:43:39.932Z,18.5
2018-07-12T04:44:39.892Z,18.5
2018-07-12T04:45:39.914Z,18.5
2018-07-12T04:46:39.883Z,18.5
2018-07-12T04:47:39.859Z,18.5
2018-07-12T04:48:39.876Z,18.5
2018-07-12T04:49:39.887Z,18.44
2018-07-12T04:50:39.945Z,18.44
2018-07-12T04:51:40.058Z,18.37
2018-07-12T04:52:39.922Z,18.37
2018-07-12T04:53:39.903Z,18.37
2018-07-12T04:54:39.993Z,18.37
2018-07-12T04:55:39.914Z,18.37
2018-07-12T04:56:39.960Z,18.31
2018-07-12T04:57:39.901Z,18.31
2018-07-12T04:58:40.183Z,18.31
2018-07-12T04:59:39.936Z,18.31
2018-07-12T05:00:39.902Z,18.31
2018-07-12T05:01:40.057Z,18.37
2018-07-12T05:02:39.917Z,18.37
2018-07-12T05:03:39.887Z,18.37
2018-07-12T05:04:39.884Z,18.31
2018-07-12T05:05:40.215Z,18.31
2018-07-12T05:06:39.914Z,18.31
2018-07-12T05:07:39.908Z,18.31
2018-07-12T05:08:39.971Z,18.31
2018-07-12T05:09:39.944Z,18.31
2018-07-12T05:10:39.897Z,18.37
2018-07-12T05:11:39.875Z,18.44
2018-07-12T05:12:39.912Z,18.37
2018-07-12T05:13:39.912Z,18.37
2018-07-12T05:14:39.922Z,18.44
2018-07-12T05:15:39.992Z,18.5
2018-07-12T05:16:39.890Z,18.5
2018-07-12T05:17:39.905Z,18.5
2018-07-12T05:18:39.950Z,18.5
2018-07-12T05:19:39.951Z,18.44
2018-07-12T05:20:39.925Z,18.5
2018-07-12T05:21:39.924Z,18.44
2018-07-12T05:22:39.942Z,18.37
2018-07-12T05:23:39.935Z,18.37
2018-07-12T05:24:39.900Z,18.31
2018-07-12T05:25:39.919Z,18.31
2018-07-12T05:26:39.920Z,18.19
2018-07-12T05:27:39.916Z,18.19
2018-07-12T05:28:39.900Z,18.25
2018-07-12T05:29:39.925Z,18.31
2018-07-12T05:30:40.204Z,18.25
2018-07-12T05:31:39.914Z,18.31
2018-07-12T05:32:39.948Z,18.31
2018-07-12T05:33:39.934Z,18.31
2018-07-12T05:34:39.960Z,18.31
2018-07-12T05:35:39.926Z,18.31
2018-07-12T05:36:39.901Z,18.37
2018-07-12T05:37:39.924Z,18.37
2018-07-12T05:38:40.134Z,18.44
2018-07-12T05:39:40.079Z,18.44
2018-07-12T05:40:39.949Z,18.44
2018-07-12T05:41:39.934Z,18.44
2018-07-12T05:42:40.207Z,18.5
2018-07-12T05:43:39.906Z,18.44
2018-07-12T05:44:39.918Z,18.44
2018-07-12T05:45:39.966Z,18.44
2018-07-12T05:46:40.451Z,18.44
2018-07-12T05:47:39.947Z,18.5
2018-07-12T05:48:39.953Z,18.5
2018-07-12T05:49:39.940Z,18.5
2018-07-12T05:50:39.993Z,18.5
2018-07-12T05:51:40.079Z,18.44
2018-07-12T05:52:39.927Z,18.56
2018-07-12T05:53:40.084Z,18.5
2018-07-12T05:54:40.071Z,18.5
2018-07-12T05:55:39.902Z,18.5
2018-07-12T05:56:40.206Z,18.5
2018-07-12T05:57:39.926Z,18.56
2018-07-12T05:58:39.953Z,18.56
2018-07-12T05:59:40.049Z,18.56
2018-07-12T06:00:39.954Z,18.62
2018-07-12T06:01:39.954Z,18.62
2018-07-12T06:02:39.920Z,18.62
2018-07-12T06:03:40.139Z,18.62
2018-07-12T06:04:40.097Z,18.62
2018-07-12T06:05:39.988Z,18.75
2018-07-12T06:06:39.978Z,18.69
2018-07-12T06:07:40.034Z,18.75
2018-07-12T06:08:39.997Z,18.75
2018-07-12T06:09:39.932Z,18.69
2018-07-12T06:10:40.008Z,18.75
2018-07-12T06:11:40.049Z,18.69
2018-07-12T06:12:39.952Z,18.81
2018-07-12T06:13:40.002Z,18.87
2018-07-12T06:14:39.943Z,18.81
2018-07-12T06:15:40.073Z,18.87
2018-07-12T06:16:39.942Z,18.94
2018-07-12T06:17:40.350Z,18.94
2018-07-12T06:18:40.163Z,19
2018-07-12T06:19:39.910Z,19
2018-07-12T06:20:40.084Z,19
2018-07-12T06:21:40.275Z,19.06
2018-07-12T06:22:39.996Z,18.94
2018-07-12T06:23:39.964Z,19
2018-07-12T06:24:40.536Z,19
2018-07-12T06:25:40.128Z,19
2018-07-12T06:26:39.930Z,18.94
2018-07-12T06:27:40.100Z,18.94
2018-07-12T06:28:40.134Z,18.94
2018-07-12T06:29:40.044Z,19
2018-07-12T06:30:40.194Z,19
2018-07-12T06:31:40.053Z,19
2018-07-12T06:32:39.982Z,19.06
2018-07-12T06:33:39.929Z,19
2018-07-12T06:34:39.945Z,19
2018-07-12T06:35:40.089Z,18.94
2018-07-12T06:36:40.141Z,19.06
2018-07-12T06:37:40.043Z,18.94
2018-07-12T06:38:39.992Z,18.94
2018-07-12T06:39:39.962Z,19
2018-07-12T06:40:40.062Z,19.06
2018-07-12T06:41:40.137Z,19.12
2018-07-12T06:42:40.840Z,19.12
2018-07-12T06:43:39.929Z,19.19
2018-07-12T06:44:40.044Z,19.19
2018-07-12T06:45:39.953Z,19.19
2018-07-12T06:46:39.959Z,19.12
2018-07-12T06:47:39.964Z,19.12
2018-07-12T06:48:39.989Z,19.12
2018-07-12T06:49:39.945Z,19.25
2018-07-12T06:50:40.122Z,19.19
2018-07-12T06:51:40.052Z,19.19
2018-07-12T06:52:40.005Z,19.19
2018-07-12T06:53:40.060Z,19.19
2018-07-12T06:54:40.289Z,19.25
2018-07-12T06:55:39.965Z,19.25
2018-07-12T06:56:39.981Z,19.31
2018-07-12T06:57:40.103Z,19.31
2018-07-12T06:58:39.959Z,19.37
2018-07-12T06:59:40.059Z,19.44
2018-07-12T07:00:40.295Z,19.44
2018-07-12T07:01:39.962Z,19.44
2018-07-12T07:02:39.959Z,19.44
2018-07-12T07:03:39.962Z,19.37
2018-07-12T07:04:40.031Z,19.44
2018-07-12T07:05:39.959Z,19.5
2018-07-12T07:06:40.101Z,19.5
2018-07-12T07:07:40.045Z,19.5
2018-07-12T07:08:40.113Z,19.56
2018-07-12T07:09:40.800Z,19.62
2018-07-12T07:10:40.021Z,19.62
2018-07-12T07:11:40.079Z,19.69
2018-07-12T07:12:40.104Z,19.69
2018-07-12T07:13:40.064Z,19.69
2018-07-12T07:14:40.439Z,19.81
2018-07-12T07:15:40.041Z,19.87
2018-07-12T07:16:39.994Z,19.87
2018-07-12T07:17:39.962Z,19.94
2018-07-12T07:18:40.079Z,19.94
2018-07-12T07:19:40.261Z,19.87
2018-07-12T07:20:40.047Z,20.06
2018-07-12T07:21:40.161Z,20.06
2018-07-12T07:22:40.091Z,20
2018-07-12T07:23:40.099Z,20.12
2018-07-12T07:24:40.024Z,20.19
2018-07-12T07:25:40.825Z,20.12
2018-07-12T07:26:40.028Z,20.25
2018-07-12T07:27:40.084Z,20.19
2018-07-12T07:28:40.061Z,20.25
2018-07-12T07:29:40.027Z,20.31
2018-07-12T07:30:39.985Z,20.37
2018-07-12T07:31:40.340Z,20.37
2018-07-12T07:32:40.114Z,20.31
2018-07-12T07:33:40.056Z,20.25
2018-07-12T07:34:40.554Z,20.25
2018-07-12T07:35:40.503Z,20.19
2018-07-12T07:36:40.136Z,20.25
2018-07-12T07:37:40.122Z,20.31
2018-07-12T07:38:40.043Z,20.31
2018-07-12T07:39:40.294Z,20.31
2018-07-12T07:40:40.097Z,20.44
2018-07-12T07:41:40.052Z,20.37
2018-07-12T07:42:40.003Z,20.44
2018-07-12T07:43:40.057Z,20.44
2018-07-12T07:44:40.043Z,20.56
2018-07-12T07:45:40.091Z,20.56
2018-07-12T07:46:40.097Z,20.56
2018-07-12T07:47:40.064Z,20.56
2018-07-12T07:48:40.108Z,20.56
2018-07-12T07:49:40.143Z,20.62
2018-07-12T07:50:40.048Z,20.56
2018-07-12T07:51:40.015Z,20.56
2018-07-12T07:52:40.084Z,20.62
2018-07-12T07:53:40.144Z,20.5
2018-07-12T07:54:39.993Z,20.44
2018-07-12T07:55:40.081Z,20.5
2018-07-12T07:56:40.097Z,20.44
2018-07-12T07:57:40.112Z,20.44
2018-07-12T07:58:40.136Z,20.37
2018-07-12T07:59:40.020Z,20.31
2018-07-12T08:00:40.026Z,20.25
2018-07-12T08:01:40.444Z,20.19
2018-07-12T08:02:40.051Z,20.12
2018-07-12T08:03:40.015Z,20.06
2018-07-12T08:04:40.060Z,20
2018-07-12T08:05:40.052Z,20
2018-07-12T08:06:40.044Z,20.06
2018-07-12T08:07:40.065Z,20.12
2018-07-12T08:08:40.030Z,20.19
2018-07-12T08:09:40.032Z,20.31
2018-07-12T08:10:40.007Z,20.37
2018-07-12T08:11:40.018Z,20.37
2018-07-12T08:12:40.001Z,20.5
2018-07-12T08:13:40.021Z,20.44
2018-07-12T08:14:40.041Z,20.56
2018-07-12T08:15:40.016Z,20.75
2018-07-12T08:16:40.058Z,20.75
2018-07-12T08:17:40.012Z,20.75
2018-07-12T08:18:39.990Z,20.69
2018-07-12T08:19:40.138Z,20.75
2018-07-12T08:20:40.115Z,20.69
2018-07-12T08:21:39.999Z,20.69
2018-07-12T08:22:40.008Z,20.75
2018-07-12T08:23:40.102Z,20.75
2018-07-12T08:24:40.173Z,20.81
2018-07-12T08:25:40.025Z,20.81
2018-07-12T08:26:40.052Z,20.75
2018-07-12T08:27:40.108Z,20.75
2018-07-12T08:28:40.072Z,20.69
2018-07-12T08:29:40.125Z,20.69
2018-07-12T08:30:40.075Z,20.75
2018-07-12T08:31:40.115Z,20.75
2018-07-12T08:32:40.210Z,20.69
2018-07-12T08:33:40.109Z,20.75
2018-07-12T08:34:40.149Z,20.75
2018-07-12T08:35:40.052Z,20.75
2018-07-12T08:36:40.163Z,20.75
2018-07-12T08:37:40.171Z,20.75
2018-07-12T08:38:40.050Z,20.75
2018-07-12T08:39:40.175Z,20.75
2018-07-12T08:40:40.832Z,20.88
2018-07-12T08:41:40.248Z,20.88
2018-07-12T08:42:40.439Z,20.88
2018-07-12T08:43:40.174Z,20.94
2018-07-12T08:44:40.231Z,20.94
2018-07-12T08:45:40.313Z,20.88
2018-07-12T08:46:40.207Z,20.88
2018-07-12T08:47:40.138Z,20.88
2018-07-12T08:48:40.140Z,20.94
2018-07-12T08:49:40.159Z,21
2018-07-12T08:50:40.143Z,21.06
2018-07-12T08:51:40.144Z,21.06
2018-07-12T08:52:40.113Z,21.12
2018-07-12T08:53:40.093Z,21.19
2018-07-12T08:54:40.729Z,21.25
2018-07-12T08:55:40.031Z,21.25
2018-07-12T08:56:40.117Z,21.25
2018-07-12T08:57:40.065Z,21.37
2018-07-12T08:58:40.217Z,21.37
2018-07-12T08:59:40.149Z,21.44
2018-07-12T09:00:40.282Z,21.44
2018-07-12T09:01:40.109Z,21.44
2018-07-12T09:02:40.678Z,21.44
2018-07-12T09:03:40.201Z,21.44
2018-07-12T09:04:40.262Z,21.5
2018-07-12T09:05:40.206Z,21.44
2018-07-12T09:06:40.113Z,21.5
2018-07-12T09:07:40.101Z,21.56
2018-07-12T09:08:40.136Z,21.69
2018-07-12T09:09:40.095Z,21.75
2018-07-12T09:10:40.102Z,21.62
2018-07-12T09:11:40.133Z,21.62
2018-07-12T09:12:40.331Z,21.62
2018-07-12T09:13:40.060Z,21.62
2018-07-12T09:14:40.097Z,21.62
2018-07-12T09:15:40.499Z,21.62
2018-07-12T09:16:40.073Z,21.56
2018-07-12T09:17:40.046Z,21.56
2018-07-12T09:18:40.082Z,21.62
2018-07-12T09:19:40.081Z,21.62
2018-07-12T09:20:40.228Z,21.62
2018-07-12T09:21:40.419Z,21.62
2018-07-12T09:22:40.103Z,21.56
2018-07-12T09:23:40.094Z,21.5
2018-07-12T09:24:40.028Z,21.56
2018-07-12T09:25:40.090Z,21.5
2018-07-12T09:26:40.138Z,21.5
2018-07-12T09:27:40.067Z,21.5
2018-07-12T09:28:40.031Z,21.62
2018-07-12T09:29:40.120Z,21.62
2018-07-12T09:30:40.312Z,21.5
2018-07-12T09:31:40.090Z,21.5
2018-07-12T09:32:40.117Z,21.56
2018-07-12T09:33:40.129Z,21.56
2018-07-12T09:34:40.086Z,21.56
2018-07-12T09:35:40.124Z,21.69
2018-07-12T09:36:40.230Z,21.75
2018-07-12T09:37:40.063Z,21.75
2018-07-12T09:38:40.201Z,21.75
2018-07-12T09:39:40.606Z,21.69
2018-07-12T09:40:40.226Z,21.75
2018-07-12T09:41:40.065Z,21.75
2018-07-12T09:42:40.197Z,21.81
2018-07-12T09:43:40.126Z,21.81
2018-07-12T09:44:40.233Z,21.81
2018-07-12T09:45:40.075Z,21.81
2018-07-12T09:46:40.068Z,21.81
2018-07-12T09:47:40.288Z,21.87
2018-07-12T09:48:40.141Z,21.94
2018-07-12T09:49:40.094Z,22
2018-07-12T09:50:40.133Z,22.06
2018-07-12T09:51:40.153Z,22.13
2018-07-12T09:52:40.154Z,22.13
2018-07-12T09:53:40.083Z,22.13
2018-07-12T09:54:40.147Z,22.06
2018-07-12T09:55:41.333Z,22.06
2018-07-12T09:56:41.548Z,22.06
2018-07-12T09:57:43.126Z,22.06
2018-07-12T09:58:40.158Z,22.06
2018-07-12T09:59:40.082Z,22.13
2018-07-12T10:00:40.304Z,22.06
2018-07-12T10:01:40.132Z,22.06
2018-07-12T10:02:40.095Z,22.13
2018-07-12T10:03:40.089Z,22.06
2018-07-12T10:04:40.687Z,22.06
2018-07-12T10:05:40.588Z,21.94
2018-07-12T10:06:40.283Z,22
2018-07-12T10:07:40.118Z,22
2018-07-12T10:08:40.267Z,22.06
2018-07-12T10:09:40.132Z,22
2018-07-12T10:10:40.415Z,22.06
2018-07-12T10:11:40.192Z,22.06
2018-07-12T10:12:40.102Z,22.19
2018-07-12T10:13:40.129Z,22.25
2018-07-12T10:14:40.427Z,22.31
2018-07-12T10:15:40.105Z,22.37
2018-07-12T10:16:40.063Z,22.37
2018-07-12T10:17:40.120Z,22.25
2018-07-12T10:18:40.172Z,22.31
2018-07-12T10:19:40.083Z,22.25
2018-07-12T10:20:40.107Z,22.19
2018-07-12T10:21:40.116Z,22.13
2018-07-12T10:22:40.115Z,22.19
2018-07-12T10:23:40.767Z,22.13
2018-07-12T10:24:40.141Z,22.19
2018-07-12T10:25:40.125Z,22.19
2018-07-12T10:26:40.136Z,22.25
2018-07-12T10:27:40.096Z,22.37
2018-07-12T10:28:40.085Z,22.25
2018-07-12T10:29:40.412Z,22.31
2018-07-12T10:30:40.374Z,22.25
2018-07-12T10:31:40.130Z,22.31
2018-07-12T10:32:40.107Z,22.31
2018-07-12T10:33:40.119Z,22.37
2018-07-12T10:34:40.092Z,22.5
2018-07-12T10:35:40.111Z,22.44
2018-07-12T10:36:40.100Z,22.37
2018-07-12T10:37:40.105Z,22.37
2018-07-12T10:38:40.104Z,22.5
2018-07-12T10:39:40.120Z,22.5
2018-07-12T10:40:40.104Z,22.5
2018-07-12T10:41:40.107Z,22.44
2018-07-12T10:42:40.134Z,22.37
2018-07-12T10:43:40.143Z,22.37
2018-07-12T10:44:40.123Z,22.31
2018-07-12T10:45:40.210Z,22.31
2018-07-12T10:46:40.288Z,22.31
2018-07-12T10:47:40.113Z,22.44
2018-07-12T10:48:40.113Z,22.5
2018-07-12T10:49:40.278Z,22.56
2018-07-12T10:50:40.129Z,22.56
2018-07-12T10:51:40.122Z,22.81
2018-07-12T10:52:40.175Z,22.75
2018-07-12T10:53:40.151Z,22.81
2018-07-12T10:54:40.483Z,22.94
2018-07-12T10:55:40.211Z,22.94
2018-07-12T10:56:40.407Z,22.94
2018-07-12T10:57:40.132Z,22.94
2018-07-12T10:58:40.180Z,22.94
2018-07-12T10:59:40.145Z,22.94
2018-07-12T11:00:40.494Z,23
2018-07-12T11:01:40.222Z,22.94
2018-07-12T11:02:40.379Z,23
2018-07-12T11:03:40.144Z,22.94
2018-07-12T11:04:40.906Z,23
2018-07-12T11:05:40.523Z,23.19
2018-07-12T11:06:40.197Z,23.12
2018-07-12T11:07:40.188Z,23.12
2018-07-12T11:08:40.199Z,23.12
2018-07-12T11:09:40.168Z,23
2018-07-12T11:10:40.229Z,22.94
2018-07-12T11:11:40.391Z,22.94
2018-07-12T11:12:40.196Z,22.94
2018-07-12T11:13:40.169Z,23
2018-07-12T11:14:40.382Z,23.06
2018-07-12T11:15:40.436Z,23.12
2018-07-12T11:16:40.263Z,23.25
2018-07-12T11:17:40.227Z,23.25
2018-07-12T11:18:40.208Z,23.38
2018-07-12T11:19:40.386Z,23.62
2018-07-12T11:20:40.290Z,23.56
2018-07-12T11:21:40.183Z,23.69
2018-07-12T11:22:40.680Z,23.69
2018-07-12T11:23:40.312Z,23.69
2018-07-12T11:24:40.429Z,23.75
2018-07-12T11:25:40.224Z,23.75
2018-07-12T11:26:40.321Z,23.62
2018-07-12T11:27:40.443Z,23.56
2018-07-12T11:28:40.359Z,23.5
2018-07-12T11:29:40.386Z,23.44
2018-07-12T11:30:40.456Z,23.5
2018-07-12T11:31:40.358Z,23.5
2018-07-12T11:32:41.549Z,23.56
2018-07-12T11:33:40.300Z,23.69
2018-07-12T11:34:40.196Z,23.75
2018-07-12T11:35:40.223Z,23.75
2018-07-12T11:36:41.463Z,23.81
2018-07-12T11:37:40.654Z,23.69
2018-07-12T11:38:40.261Z,23.69
2018-07-12T11:39:40.343Z,23.69
2018-07-12T11:40:40.231Z,23.62
2018-07-12T11:41:40.655Z,23.56
2018-07-12T11:42:40.432Z,23.5
2018-07-12T11:43:40.432Z,23.44
2018-07-12T11:44:41.570Z,23.56
2018-07-12T11:45:40.173Z,23.56
2018-07-12T11:46:40.268Z,23.62
2018-07-12T11:47:40.161Z,23.75
2018-07-12T11:48:40.305Z,23.75
2018-07-12T11:49:40.127Z,23.87
2018-07-12T11:50:40.154Z,23.94
2018-07-12T11:51:40.362Z,24.06
2018-07-12T11:52:40.762Z,24.12
2018-07-12T11:53:40.255Z,24.12
2018-07-12T11:54:40.314Z,24.06
2018-07-12T11:55:40.271Z,24.06
2018-07-12T11:56:40.173Z,24.12
2018-07-12T11:57:40.255Z,24.12
2018-07-12T11:58:40.189Z,24.06
2018-07-12T11:59:40.208Z,23.94
2018-07-12T12:00:40.253Z,24
2018-07-12T12:01:40.924Z,24.06
2018-07-12T12:02:40.202Z,24.19
2018-07-12T12:03:40.204Z,24.25
2018-07-12T12:04:40.361Z,24.31
2018-07-12T12:05:40.231Z,24.37
2018-07-12T12:06:40.225Z,24.37
2018-07-12T12:07:40.270Z,24.44
2018-07-12T12:08:40.402Z,24.56
2018-07-12T12:09:40.246Z,24.56
2018-07-12T12:10:41.290Z,24.63
2018-07-12T12:11:40.200Z,24.69
2018-07-12T12:12:40.236Z,24.75
2018-07-12T12:13:40.473Z,24.81
2018-07-12T12:14:40.188Z,24.75
2018-07-12T12:15:40.219Z,24.75
2018-07-12T12:16:40.237Z,24.81
2018-07-12T12:17:40.197Z,24.81
2018-07-12T12:18:40.204Z,24.87
2018-07-12T12:19:40.192Z,24.75
2018-07-12T12:20:40.372Z,24.69
2018-07-12T12:21:40.171Z,24.69
2018-07-12T12:22:40.305Z,24.69
2018-07-12T12:23:40.190Z,24.69
2018-07-12T12:24:40.447Z,24.69
2018-07-12T12:25:40.191Z,24.63
2018-07-12T12:26:40.197Z,24.69
2018-07-12T12:27:40.260Z,24.81
2018-07-12T12:28:40.360Z,24.81
2018-07-12T12:29:40.198Z,25
2018-07-12T12:30:40.874Z,24.81
2018-07-12T12:31:40.241Z,24.87
2018-07-12T12:32:40.296Z,24.94
2018-07-12T12:33:40.353Z,24.94
2018-07-12T12:34:40.507Z,25
2018-07-12T12:35:40.205Z,24.81
2018-07-12T12:36:40.315Z,24.69
2018-07-12T12:37:40.401Z,24.69
2018-07-12T12:38:40.285Z,24.56
2018-07-12T12:39:40.200Z,24.56
2018-07-12T12:40:40.219Z,24.44
2018-07-12T12:41:40.248Z,24.37
2018-07-12T12:42:40.325Z,24.44
2018-07-12T12:43:40.270Z,24.56
2018-07-12T12:44:40.471Z,24.69
2018-07-12T12:45:40.218Z,24.81
2018-07-12T12:46:40.233Z,24.87
2018-07-12T12:47:40.251Z,24.87
2018-07-12T12:48:40.204Z,24.94
2018-07-12T12:49:40.238Z,25
2018-07-12T12:50:40.226Z,24.94
2018-07-12T12:51:40.233Z,24.87
2018-07-12T12:52:40.257Z,24.81
2018-07-12T12:53:40.227Z,24.81
2018-07-12T12:54:40.291Z,24.69
2018-07-12T12:55:40.203Z,24.69
2018-07-12T12:56:40.239Z,24.63
2018-07-12T12:57:40.227Z,24.56
2018-07-12T12:58:40.253Z,24.5